Time;durP1;ratioP1;P1;durP2;ratioP2;P2;SDS_P1;SDS_P2;PMS_P1;PMS_P2;Temp;Humidity;BMP_temperature;BMP_pressure;BME280_temperature;BME280_humidity;BME280_pressure;Samples;Min_cycle;Max_cycle;Signal;HPM_P1;HPM_P2
2021/12/10 00:00:38;;;;;;;10.40;3.58;;;0.40;99.90;;;;;;4418585;32;20065;-68
2021/12/10 00:03:12;;;;;;;17.12;4.80;;;0.40;99.90;;;;;;4416780;32;20090;-68
2021/12/10 00:05:43;;;;;;;5.50;2.65;;;0.40;99.90;;;;;;4415713;32;20445;-69
2021/12/10 00:08:09;;;;;;;16.55;3.40;;;0.40;99.90;;;;;;4420825;32;20069;-68
2021/12/10 00:10:39;;;;;;;2.28;2.05;;;0.40;99.90;;;;;;4415914;32;20139;-68
2021/12/10 00:13:06;;;;;;;4.80;2.28;;;0.40;99.90;;;;;;4419132;32;20148;-69
2021/12/10 00:15:33;;;;;;;2.50;2.30;;;0.50;99.90;;;;;;4418389;32;20078;-68
2021/12/10 00:18:02;;;;;;;2.58;1.98;;;0.40;99.90;;;;;;4418550;32;20078;-68
2021/12/10 00:20:31;;;;;;;2.90;2.42;;;0.50;99.90;;;;;;4415027;32;20073;-68
2021/12/10 00:23:00;;;;;;;7.03;2.45;;;0.40;99.90;;;;;;4415470;32;20082;-69
2021/12/10 00:25:34;;;;;;;2.20;2.00;;;0.40;99.90;;;;;;4419616;32;20509;-69
2021/12/10 00:28:12;;;;;;;5.12;3.05;;;0.40;99.90;;;;;;4420010;32;20094;-69
2021/12/10 00:30:44;;;;;;;19.08;5.60;;;0.40;99.90;;;;;;4422557;32;20081;-68
2021/12/10 00:33:20;;;;;;;1.92;1.73;;;0.40;99.90;;;;;;4416281;32;20090;-68
2021/12/10 00:35:47;;;;;;;28.75;2.87;;;0.40;99.90;;;;;;4417638;32;20065;-69
2021/12/10 00:38:13;;;;;;;11.43;3.87;;;0.40;99.90;;;;;;4416347;32;20130;-69
2021/12/10 00:40:40;;;;;;;8.23;4.37;;;0.50;99.90;;;;;;4416994;32;20073;-69
2021/12/10 00:43:05;;;;;;;26.67;4.43;;;0.60;99.90;;;;;;4418818;32;20092;-69
2021/12/10 00:45:31;;;;;;;5.97;2.92;;;0.70;99.90;;;;;;4416729;32;20572;-68
2021/12/10 00:47:56;;;;;;;7.35;4.15;;;0.60;99.90;;;;;;4417943;32;20442;-69
2021/12/10 00:50:26;;;;;;;2.75;2.20;;;0.60;99.90;;;;;;4417479;32;20104;-69
2021/12/10 00:52:53;;;;;;;3.50;2.28;;;0.50;99.90;;;;;;4419086;32;20383;-68
2021/12/10 00:55:20;;;;;;;1.90;1.80;;;0.50;99.90;;;;;;4417996;32;20065;-68
2021/12/10 00:57:46;;;;;;;13.52;5.10;;;0.40;99.90;;;;;;4419695;32;20490;-69
2021/12/10 01:00:18;;;;;;;6.05;4.03;;;0.40;99.90;;;;;;4419297;32;20089;-69
2021/12/10 01:02:43;;;;;;;4.43;3.17;;;0.40;99.90;;;;;;4420393;32;20078;-68
2021/12/10 01:05:11;;;;;;;2.28;1.67;;;0.40;99.90;;;;;;4420641;32;20395;-69
2021/12/10 01:07:38;;;;;;;4.35;3.22;;;0.30;99.90;;;;;;4420342;32;20747;-69
2021/12/10 01:10:13;;;;;;;4.68;3.47;;;0.30;99.90;;;;;;4420025;32;20066;-68
2021/12/10 01:12:44;;;;;;;7.15;4.95;;;0.40;99.90;;;;;;4422832;32;20097;-68
2021/12/10 01:15:38;;;;;;;1.80;1.70;;;0.40;99.90;;;;;;4422307;32;20470;-69
2021/12/10 01:26:25;;;;;;;3.33;3.05;;;0.40;99.90;;;;;;4422376;32;20128;-69
2021/12/10 01:28:55;;;;;;;3.42;1.73;;;0.40;99.90;;;;;;4416585;32;20121;-68
2021/12/10 01:31:21;;;;;;;2.80;2.58;;;0.40;99.90;;;;;;4417141;32;20064;-68
2021/12/10 01:33:49;;;;;;;1.50;1.40;;;0.30;99.90;;;;;;4418863;32;20110;-68
2021/12/10 01:36:15;;;;;;;1.87;1.77;;;0.30;99.90;;;;;;4422566;32;20066;-68
2021/12/10 01:38:43;;;;;;;10.25;5.68;;;0.30;99.90;;;;;;4417013;32;20409;-69
2021/12/10 01:41:13;;;;;;;6.72;4.35;;;0.30;99.90;;;;;;4419815;32;20073;-68
2021/12/10 01:43:40;;;;;;;2.72;1.60;;;0.30;99.90;;;;;;4421867;32;20070;-69
2021/12/10 01:46:11;;;;;;;5.97;3.00;;;0.40;99.90;;;;;;4419721;32;20170;-69
2021/12/10 01:48:41;;;;;;;4.57;3.85;;;0.30;99.90;;;;;;4418460;32;20528;-69
2021/12/10 01:51:09;;;;;;;3.12;1.83;;;0.30;99.90;;;;;;4423345;32;20086;-69
2021/12/10 01:53:37;;;;;;;8.60;4.72;;;0.30;99.90;;;;;;4416114;32;20654;-68
2021/12/10 01:56:10;;;;;;;2.78;2.47;;;0.30;99.90;;;;;;4411885;32;20124;-68
2021/12/10 01:58:35;;;;;;;2.28;2.08;;;0.30;99.90;;;;;;4421217;32;20431;-68
2021/12/10 02:01:05;;;;;;;4.65;2.72;;;0.30;99.90;;;;;;4422421;32;20061;-68
2021/12/10 02:03:32;;;;;;;8.88;4.35;;;0.30;99.90;;;;;;4421655;32;20191;-68
2021/12/10 02:05:58;;;;;;;1.70;1.60;;;0.40;99.90;;;;;;4414287;32;20573;-68
2021/12/10 02:08:23;;;;;;;3.30;2.97;;;0.40;99.90;;;;;;4423103;32;20073;-68
2021/12/10 02:10:49;;;;;;;4.90;3.75;;;0.30;99.90;;;;;;4422232;32;20061;-68
2021/12/10 02:13:15;;;;;;;3.53;1.65;;;0.20;99.90;;;;;;4424109;32;20541;-69
2021/12/10 02:15:41;;;;;;;2.37;2.15;;;0.20;99.90;;;;;;4420166;32;20090;-68
2021/12/10 02:18:08;;;;;;;5.15;3.72;;;0.30;99.90;;;;;;4419624;32;20140;-68
2021/12/10 02:20:44;;;;;;;4.90;3.17;;;0.30;99.90;;;;;;4419654;32;20078;-68
2021/12/10 02:23:10;;;;;;;7.53;4.22;;;0.40;99.90;;;;;;4419071;32;20077;-68
2021/12/10 02:25:37;;;;;;;5.25;3.00;;;0.50;99.90;;;;;;4417982;32;20090;-69
2021/12/10 02:28:06;;;;;;;5.90;2.35;;;0.40;99.90;;;;;;4418132;32;20078;-69
2021/12/10 02:30:33;;;;;;;4.43;3.50;;;0.40;99.90;;;;;;4419986;32;20583;-68
2021/12/10 02:32:59;;;;;;;1.92;1.83;;;0.30;99.90;;;;;;4422542;32;20085;-68
2021/12/10 02:35:26;;;;;;;5.70;2.33;;;0.40;99.90;;;;;;4417622;32;20089;-67
2021/12/10 02:37:53;;;;;;;1.95;1.85;;;0.40;99.90;;;;;;4419546;32;20083;-68
2021/12/10 02:40:21;;;;;;;2.33;2.08;;;0.40;99.90;;;;;;4419199;32;20084;-68
2021/12/10 02:42:48;;;;;;;2.42;2.08;;;0.40;99.90;;;;;;4419496;32;20096;-69
2021/12/10 02:45:16;;;;;;;3.08;2.72;;;0.50;99.90;;;;;;4417454;32;20089;-68
2021/12/10 02:47:42;;;;;;;4.65;3.33;;;0.50;99.90;;;;;;4419887;32;20144;-67
2021/12/10 02:50:09;;;;;;;1.42;1.35;;;0.50;99.90;;;;;;4419895;32;20069;-69
2021/12/10 02:52:35;;;;;;;30.92;4.07;;;0.50;99.90;;;;;;4419015;32;20690;-68
2021/12/10 02:55:00;;;;;;;5.78;3.90;;;0.40;99.90;;;;;;4419152;32;20078;-68
2021/12/10 02:57:26;;;;;;;2.17;2.05;;;0.40;99.90;;;;;;4418285;32;20078;-69
2021/12/10 02:59:52;;;;;;;8.90;3.65;;;0.30;99.90;;;;;;4419264;32;20062;-68
2021/12/10 03:02:22;;;;;;;2.30;1.98;;;0.30;99.90;;;;;;4421266;32;20410;-69
2021/12/10 03:04:48;;;;;;;2.22;2.03;;;0.30;99.90;;;;;;4416651;32;20058;-68
2021/12/10 03:07:16;;;;;;;2.50;2.30;;;0.30;99.90;;;;;;4418539;32;20089;-69
2021/12/10 03:09:44;;;;;;;4.80;3.55;;;0.30;99.90;;;;;;4420416;32;20499;-69
2021/12/10 03:12:12;;;;;;;3.75;2.60;;;0.30;99.90;;;;;;4422277;32;20061;-69
2021/12/10 03:14:40;;;;;;;7.05;3.55;;;0.30;99.90;;;;;;4420652;32;20073;-68
2021/12/10 03:17:11;;;;;;;5.70;4.32;;;0.30;99.90;;;;;;4420639;32;20112;-68
2021/12/10 03:19:37;;;;;;;9.23;2.67;;;0.30;99.90;;;;;;4420422;32;20524;-68
2021/12/10 03:22:05;;;;;;;11.10;4.07;;;0.30;99.90;;;;;;4420051;32;20091;-69
2021/12/10 03:24:31;;;;;;;3.17;2.87;;;0.40;99.90;;;;;;4416349;32;20073;-69
2021/12/10 03:27:04;;;;;;;9.45;4.30;;;0.40;99.90;;;;;;4414524;32;20342;-68
2021/12/10 03:29:31;;;;;;;5.10;2.45;;;0.40;99.90;;;;;;4414448;32;20062;-68
2021/12/10 03:32:01;;;;;;;6.85;2.72;;;0.30;99.90;;;;;;4418578;32;20097;-68
2021/12/10 03:34:26;;;;;;;3.78;3.05;;;0.30;99.90;;;;;;4414166;32;20525;-68
2021/12/10 03:36:54;;;;;;;5.32;4.05;;;0.30;99.90;;;;;;4418342;32;20124;-68
2021/12/10 03:39:22;;;;;;;8.07;3.85;;;0.30;99.90;;;;;;4419394;32;20444;-68
2021/12/10 03:41:50;;;;;;;10.57;4.93;;;0.30;99.90;;;;;;4418146;32;20838;-67
2021/12/10 03:44:16;;;;;;;2.83;2.10;;;0.30;99.90;;;;;;4418817;32;20078;-68
2021/12/10 03:46:42;;;;;;;2.20;2.05;;;0.40;99.90;;;;;;4418993;32;20068;-68
2021/12/10 03:49:08;;;;;;;2.10;1.92;;;0.40;99.90;;;;;;4418977;32;20474;-68
2021/12/10 03:51:35;;;;;;;3.67;2.37;;;0.40;99.90;;;;;;4420273;32;20105;-68
2021/12/10 03:54:04;;;;;;;3.30;3.00;;;0.50;99.90;;;;;;4420115;32;20081;-68
2021/12/10 03:56:32;;;;;;;3.83;2.80;;;0.60;99.90;;;;;;4419477;32;20089;-69
2021/12/10 03:59:00;;;;;;;9.00;4.03;;;0.60;99.90;;;;;;4420356;32;20128;-69
2021/12/10 04:01:30;;;;;;;7.50;3.00;;;0.60;99.90;;;;;;4418645;32;20526;-67
2021/12/10 04:03:58;;;;;;;2.80;2.47;;;0.70;99.90;;;;;;4415517;32;20081;-69
2021/12/10 04:06:24;;;;;;;4.70;3.55;;;0.60;99.90;;;;;;4413565;32;20757;-68
2021/12/10 04:08:50;;;;;;;2.50;2.30;;;0.70;99.90;;;;;;4418272;32;20498;-69
2021/12/10 04:11:17;;;;;;;23.42;3.87;;;0.60;99.90;;;;;;4417051;32;20070;-68
2021/12/10 04:13:46;;;;;;;2.17;1.98;;;0.60;99.90;;;;;;4420800;32;20061;-69
2021/12/10 04:16:12;;;;;;;1.43;1.33;;;0.60;99.90;;;;;;4416945;32;20081;-69
2021/12/10 04:18:39;;;;;;;3.72;2.85;;;0.60;99.90;;;;;;4420924;32;20123;-68
2021/12/10 04:21:07;;;;;;;2.55;1.70;;;0.60;99.90;;;;;;4417339;32;20407;-69
2021/12/10 04:23:33;;;;;;;6.45;3.15;;;0.60;99.90;;;;;;4422178;32;20089;-68
2021/12/10 04:25:59;;;;;;;2.97;2.67;;;0.50;99.90;;;;;;4420905;32;20053;-68
2021/12/10 04:28:25;;;;;;;4.55;3.45;;;0.50;99.90;;;;;;4421035;32;20062;-68
2021/12/10 04:30:52;;;;;;;2.87;2.62;;;0.50;99.90;;;;;;4418829;32;20505;-68
2021/12/10 04:33:22;;;;;;;2.87;2.65;;;0.50;99.90;;;;;;4419695;32;104345;-68
2021/12/10 04:35:51;;;;;;;13.38;5.03;;;0.50;99.90;;;;;;4420851;32;20085;-69
2021/12/10 04:38:18;;;;;;;1.67;1.58;;;0.50;99.90;;;;;;4419643;32;20124;-68
2021/12/10 04:40:47;;;;;;;1.90;1.80;;;0.60;99.90;;;;;;4421319;32;20070;-68
2021/12/10 04:43:14;;;;;;;3.20;2.03;;;0.60;99.90;;;;;;4419686;32;20152;-68
2021/12/10 04:45:40;;;;;;;15.38;2.85;;;0.60;99.90;;;;;;4416625;32;20073;-68
2021/12/10 04:48:06;;;;;;;4.40;2.78;;;0.60;99.90;;;;;;4422623;32;20106;-68
2021/12/10 04:50:31;;;;;;;2.22;2.12;;;0.60;99.90;;;;;;4421046;32;20070;-69
2021/12/10 04:52:58;;;;;;;8.77;3.08;;;0.50;99.90;;;;;;4420733;32;20053;-68
2021/12/10 04:55:24;;;;;;;2.33;2.12;;;0.50;99.90;;;;;;4418904;32;20069;-69
2021/12/10 04:57:51;;;;;;;3.78;3.08;;;0.50;99.90;;;;;;4421130;32;20069;-67
2021/12/10 05:00:23;;;;;;;18.92;3.30;;;0.50;99.90;;;;;;4419001;32;20062;-68
2021/12/10 05:02:49;;;;;;;2.65;2.45;;;0.50;99.90;;;;;;4418454;32;20588;-68
2021/12/10 05:05:15;;;;;;;1.55;1.48;;;0.50;99.90;;;;;;4421499;32;20057;-68
2021/12/10 05:07:41;;;;;;;2.55;2.35;;;0.50;99.90;;;;;;4420618;32;20074;-68
2021/12/10 05:10:09;;;;;;;2.40;1.55;;;0.50;99.90;;;;;;4421719;32;20414;-67
2021/12/10 05:12:35;;;;;;;15.30;4.03;;;0.50;99.90;;;;;;4418741;32;20053;-68
2021/12/10 05:15:02;;;;;;;5.18;3.55;;;0.50;99.90;;;;;;4422000;32;20066;-67
2021/12/10 05:17:32;;;;;;;6.65;3.37;;;0.50;99.90;;;;;;4421340;32;20525;-69
2021/12/10 05:20:00;;;;;;;7.22;3.92;;;0.60;99.90;;;;;;4422764;32;20106;-68
2021/12/10 05:22:27;;;;;;;10.05;4.32;;;0.60;99.90;;;;;;4414487;32;20061;-69
2021/12/10 05:24:53;;;;;;;6.20;3.55;;;0.50;99.90;;;;;;4419822;32;20098;-68
2021/12/10 05:27:18;;;;;;;3.65;2.75;;;0.50;99.90;;;;;;4420908;32;20521;-67
2021/12/10 05:29:44;;;;;;;4.53;3.25;;;0.60;99.90;;;;;;4421594;32;20053;-68
2021/12/10 05:32:11;;;;;;;4.85;3.17;;;0.70;99.90;;;;;;4419630;32;20108;-68
2021/12/10 05:34:40;;;;;;;4.80;2.58;;;0.70;99.90;;;;;;4418245;32;20062;-68
2021/12/10 05:37:06;;;;;;;1.80;1.70;;;0.70;99.90;;;;;;4419115;32;20061;-68
2021/12/10 05:39:32;;;;;;;3.78;2.70;;;0.70;99.90;;;;;;4421133;32;20070;-68
2021/12/10 05:42:00;;;;;;;3.67;2.70;;;0.70;99.90;;;;;;4422369;32;20127;-68
2021/12/10 05:44:26;;;;;;;6.32;3.92;;;0.70;99.90;;;;;;4419548;32;20121;-68
2021/12/10 05:46:51;;;;;;;3.90;3.50;;;0.60;99.90;;;;;;4420191;32;20061;-68
2021/12/10 05:49:17;;;;;;;4.65;2.15;;;0.60;99.90;;;;;;4418802;32;20058;-68
2021/12/10 05:51:42;;;;;;;5.75;4.93;;;0.60;99.90;;;;;;4421119;32;20123;-68
2021/12/10 05:54:08;;;;;;;2.72;2.50;;;0.60;99.90;;;;;;4420126;32;20104;-68
2021/12/10 05:56:34;;;;;;;10.07;5.45;;;0.60;99.90;;;;;;4420667;32;20069;-68
2021/12/10 05:58:59;;;;;;;4.07;3.67;;;0.60;99.90;;;;;;4421753;32;20077;-68
2021/12/10 06:01:26;;;;;;;9.43;5.05;;;0.50;99.90;;;;;;4414490;32;20116;-68
2021/12/10 06:03:53;;;;;;;4.72;3.22;;;0.60;99.90;;;;;;4418274;32;20081;-69
2021/12/10 06:06:22;;;;;;;15.23;3.90;;;0.60;99.90;;;;;;4417956;32;20069;-68
2021/12/10 06:08:48;;;;;;;14.98;3.70;;;0.60;99.90;;;;;;4422973;32;20069;-69
2021/12/10 06:11:14;;;;;;;8.13;4.22;;;0.60;99.90;;;;;;4420223;32;20514;-68
2021/12/10 06:13:40;;;;;;;12.13;3.40;;;0.70;99.90;;;;;;4416741;32;20140;-67
2021/12/10 06:16:07;;;;;;;3.78;3.40;;;0.70;99.90;;;;;;4415640;32;20093;-67
2021/12/10 06:18:33;;;;;;;2.65;2.45;;;0.70;99.90;;;;;;4406598;32;20083;-69
2021/12/10 06:20:59;;;;;;;2.70;2.08;;;0.70;99.90;;;;;;4417409;32;20077;-68
2021/12/10 06:23:24;;;;;;;4.70;3.40;;;0.60;99.90;;;;;;4418921;32;20506;-69
2021/12/10 06:25:50;;;;;;;6.35;3.33;;;0.60;99.90;;;;;;4413676;32;20061;-67
2021/12/10 06:28:18;;;;;;;10.63;3.87;;;0.60;99.90;;;;;;4407973;32;20437;-68
2021/12/10 06:30:47;;;;;;;17.60;1.98;;;0.70;99.90;;;;;;4412141;32;20171;-69
2021/12/10 06:33:16;;;;;;;14.63;4.45;;;0.70;99.90;;;;;;4406839;32;20085;-68
2021/12/10 06:35:45;;;;;;;6.93;3.53;;;0.80;99.90;;;;;;4422443;32;20646;-68
2021/12/10 06:38:12;;;;;;;4.10;3.12;;;0.80;99.90;;;;;;4417930;32;20085;-68
2021/12/10 06:40:40;;;;;;;23.00;5.82;;;0.80;99.90;;;;;;4422995;32;20073;-68
2021/12/10 06:43:06;;;;;;;3.33;2.55;;;0.80;99.90;;;;;;4423220;32;20086;-67
2021/12/10 06:45:33;;;;;;;3.47;2.72;;;0.70;99.90;;;;;;4415418;32;20553;-68
2021/12/10 06:48:01;;;;;;;3.87;2.80;;;0.80;99.90;;;;;;4419414;32;20148;-69
2021/12/10 06:50:31;;;;;;;28.25;4.18;;;0.70;99.90;;;;;;4420915;32;20085;-68
2021/12/10 06:52:57;;;;;;;7.25;4.43;;;0.80;99.90;;;;;;4412104;32;20173;-68
2021/12/10 06:55:24;;;;;;;22.17;3.95;;;0.80;99.90;;;;;;4407287;32;20134;-69
2021/12/10 06:57:50;;;;;;;10.10;3.55;;;0.80;99.90;;;;;;4408947;32;20169;-68
2021/12/10 07:00:22;;;;;;;5.00;4.47;;;0.80;99.90;;;;;;4414347;32;20422;-67
2021/12/10 07:02:49;;;;;;;6.05;3.08;;;0.80;99.90;;;;;;4407329;32;20412;-68
2021/12/10 07:05:14;;;;;;;2.53;2.10;;;0.70;99.90;;;;;;4406840;32;20090;-67
2021/12/10 07:07:40;;;;;;;5.45;2.80;;;0.80;99.90;;;;;;4407516;32;20093;-69
2021/12/10 07:10:08;;;;;;;13.62;3.97;;;0.90;99.90;;;;;;4412993;32;20474;-68
2021/12/10 07:12:35;;;;;;;9.07;3.25;;;0.90;99.90;;;;;;4409919;32;20073;-67
2021/12/10 07:15:03;;;;;;;4.50;3.53;;;0.80;99.90;;;;;;4413006;32;20168;-67
2021/12/10 07:17:29;;;;;;;11.95;6.55;;;0.80;99.90;;;;;;4407976;32;20070;-67
2021/12/10 07:19:55;;;;;;;3.72;1.87;;;0.90;99.90;;;;;;4415370;32;20106;-68
2021/12/10 07:22:21;;;;;;;3.90;3.47;;;0.90;99.90;;;;;;4415155;32;20357;-68
2021/12/10 07:24:46;;;;;;;2.92;2.67;;;0.90;99.90;;;;;;4410109;32;20086;-68
2021/12/10 07:27:12;;;;;;;3.47;2.55;;;0.90;99.90;;;;;;4412590;32;20128;-68
2021/12/10 07:29:40;;;;;;;6.05;3.33;;;0.90;99.90;;;;;;4407532;32;20106;-68
2021/12/10 07:32:06;;;;;;;4.00;1.73;;;0.90;99.90;;;;;;4416560;32;20065;-68
2021/12/10 07:34:33;;;;;;;8.75;4.05;;;0.90;99.90;;;;;;4409236;32;20074;-67
2021/12/10 07:36:58;;;;;;;6.10;2.55;;;0.80;99.90;;;;;;4411106;32;20093;-68
2021/12/10 07:39:24;;;;;;;5.32;3.22;;;0.90;99.90;;;;;;4418326;32;20089;-67
2021/12/10 07:41:49;;;;;;;1.83;1.73;;;0.90;99.90;;;;;;4409131;32;20097;-67
2021/12/10 07:44:15;;;;;;;4.07;3.55;;;0.90;99.90;;;;;;4405842;32;20607;-68
2021/12/10 07:46:42;;;;;;;4.12;3.47;;;0.90;99.90;;;;;;4407483;32;20520;-67
2021/12/10 07:49:15;;;;;;;4.87;3.60;;;0.90;99.90;;;;;;4407174;32;20073;-68
2021/12/10 07:51:44;;;;;;;4.30;2.70;;;0.90;99.90;;;;;;4405389;32;20094;-67
2021/12/10 07:54:11;;;;;;;4.00;3.03;;;0.90;99.90;;;;;;4404948;32;20085;-68
2021/12/10 07:56:38;;;;;;;3.15;2.75;;;1.00;99.90;;;;;;4405874;32;20066;-68
2021/12/10 07:59:04;;;;;;;10.93;3.50;;;1.00;99.90;;;;;;4403502;32;20053;-68
2021/12/10 08:01:30;;;;;;;10.10;2.15;;;1.00;99.90;;;;;;4406976;32;20061;-68
2021/12/10 08:04:00;;;;;;;2.45;2.25;;;0.90;99.90;;;;;;4384005;32;21000;-67
2021/12/10 08:06:28;;;;;;;4.50;3.53;;;0.90;99.90;;;;;;4390733;32;21015;-68
2021/12/10 08:08:54;;;;;;;8.48;2.50;;;1.00;99.90;;;;;;4391557;32;21610;-67
2021/12/10 08:11:20;;;;;;;2.10;1.90;;;1.10;99.90;;;;;;4391304;32;20100;-68
2021/12/10 08:13:47;;;;;;;25.20;4.50;;;1.10;99.90;;;;;;4398912;32;21564;-67
2021/12/10 08:16:13;;;;;;;8.85;5.80;;;1.10;99.90;;;;;;4395426;32;20510;-67
2021/12/10 08:18:40;;;;;;;12.18;4.53;;;1.10;99.90;;;;;;4393396;32;21250;-67
2021/12/10 08:21:06;;;;;;;4.65;3.42;;;1.00;99.90;;;;;;4391463;32;20081;-67
2021/12/10 08:23:33;;;;;;;5.90;3.72;;;1.00;99.90;;;;;;4392393;32;20553;-67
2021/12/10 08:25:59;;;;;;;3.42;2.90;;;1.00;99.90;;;;;;4393045;32;20097;-68
2021/12/10 08:28:27;;;;;;;3.00;2.17;;;1.00;99.90;;;;;;4393843;32;21571;-67
2021/12/10 08:30:53;;;;;;;4.65;3.28;;;1.00;99.90;;;;;;4400775;32;20065;-67
2021/12/10 08:33:19;;;;;;;5.70;3.30;;;1.10;99.90;;;;;;4406028;32;20514;-67
2021/12/10 08:35:49;;;;;;;3.22;2.75;;;1.10;99.90;;;;;;4403239;32;20105;-68
2021/12/10 08:38:15;;;;;;;11.38;4.60;;;1.20;99.90;;;;;;4406142;32;20582;-68
2021/12/10 08:40:46;;;;;;;2.60;2.40;;;1.20;99.90;;;;;;4413857;32;20180;-68
2021/12/10 08:43:12;;;;;;;20.10;6.15;;;1.20;99.90;;;;;;4407948;32;20072;-67
2021/12/10 08:45:41;;;;;;;2.53;2.35;;;1.30;99.90;;;;;;4411565;32;20660;-67
2021/12/10 08:48:07;;;;;;;6.05;2.35;;;1.30;99.90;;;;;;4406985;32;20079;-67
2021/12/10 08:50:33;;;;;;;1.87;1.67;;;1.30;99.90;;;;;;4404830;32;20464;-68
2021/12/10 08:53:04;;;;;;;11.77;4.95;;;1.40;99.90;;;;;;4393801;32;20454;-67
2021/12/10 08:55:32;;;;;;;5.25;4.25;;;1.40;99.90;;;;;;4402937;32;20189;-67
2021/12/10 08:57:58;;;;;;;9.60;4.35;;;1.40;99.90;;;;;;4403286;32;20872;-67
2021/12/10 09:00:25;;;;;;;10.65;5.10;;;1.40;99.90;;;;;;4398968;32;20294;-68
2021/12/10 09:02:53;;;;;;;12.68;6.45;;;1.40;99.90;;;;;;4394208;32;20206;-67
2021/12/10 09:05:19;;;;;;;14.10;5.40;;;1.50;99.90;;;;;;4401489;32;20110;-67
2021/12/10 09:07:45;;;;;;;6.62;3.03;;;1.50;99.90;;;;;;4396615;32;20110;-67
2021/12/10 09:10:14;;;;;;;5.12;3.55;;;1.60;99.90;;;;;;4396484;32;20092;-67
2021/12/10 09:12:40;;;;;;;4.03;2.85;;;1.60;99.90;;;;;;4399797;32;20324;-66
2021/12/10 09:15:10;;;;;;;4.68;3.20;;;1.60;99.90;;;;;;4404410;32;20196;-67
2021/12/10 09:17:40;;;;;;;8.73;3.03;;;1.50;99.90;;;;;;4397947;32;20210;-67
2021/12/10 09:20:13;;;;;;;10.25;4.87;;;1.60;99.90;;;;;;4401853;32;20485;-66
2021/12/10 09:22:39;;;;;;;4.85;3.85;;;1.60;99.90;;;;;;4404332;32;20182;-68
2021/12/10 09:25:09;;;;;;;8.20;3.28;;;1.50;99.90;;;;;;4401180;32;20081;-68
2021/12/10 09:27:36;;;;;;;7.50;4.20;;;1.40;99.90;;;;;;4406223;32;20101;-65
2021/12/10 09:30:04;;;;;;;3.80;3.45;;;1.40;99.90;;;;;;4409201;32;20085;-68
2021/12/10 09:32:29;;;;;;;5.07;3.72;;;1.50;99.90;;;;;;4401845;32;20098;-68
2021/12/10 09:34:59;;;;;;;11.30;5.43;;;1.60;99.90;;;;;;4399333;32;20073;-68
2021/12/10 09:37:26;;;;;;;2.80;2.55;;;1.50;99.90;;;;;;4400582;32;20089;-67
2021/12/10 09:39:52;;;;;;;11.35;4.00;;;1.40;99.90;;;;;;4402218;32;21759;-68
2021/12/10 09:42:20;;;;;;;12.55;4.30;;;1.50;99.90;;;;;;4401945;32;20058;-67
2021/12/10 09:44:46;;;;;;;4.07;3.12;;;1.50;99.90;;;;;;4401028;32;20417;-67
2021/12/10 09:47:15;;;;;;;8.10;3.35;;;1.50;99.90;;;;;;4399561;32;20612;-68
2021/12/10 09:49:43;;;;;;;5.30;3.90;;;1.60;99.90;;;;;;4400713;32;20082;-68
2021/12/10 09:52:10;;;;;;;11.40;4.97;;;1.50;99.90;;;;;;4401453;32;21131;-68
2021/12/10 09:54:38;;;;;;;6.60;4.65;;;1.50;99.90;;;;;;4402177;32;20097;-68
2021/12/10 09:57:10;;;;;;;5.78;3.65;;;1.50;99.90;;;;;;4402808;32;20145;-68
2021/12/10 09:59:39;;;;;;;3.67;3.30;;;1.50;99.90;;;;;;4403088;32;20093;-68
2021/12/10 10:02:06;;;;;;;7.10;4.55;;;1.40;99.90;;;;;;4408322;32;21241;-69
2021/12/10 10:04:35;;;;;;;2.42;2.15;;;1.30;99.90;;;;;;4412100;32;20097;-68
2021/12/10 10:07:06;;;;;;;5.47;2.45;;;1.40;99.90;;;;;;4393572;32;20090;-68
2021/12/10 10:09:32;;;;;;;5.18;3.83;;;1.40;99.90;;;;;;4409147;32;20249;-68
2021/12/10 10:12:03;;;;;;;4.70;3.15;;;1.50;99.90;;;;;;4409557;32;20086;-68
2021/12/10 10:14:28;;;;;;;5.10;4.60;;;1.50;99.90;;;;;;4412785;32;20422;-68
2021/12/10 10:16:55;;;;;;;12.73;3.70;;;1.60;99.90;;;;;;4409735;32;20104;-68
2021/12/10 10:19:21;;;;;;;7.95;4.68;;;1.50;99.90;;;;;;4411266;32;20093;-67
2021/12/10 10:21:53;;;;;;;2.22;2.05;;;1.60;99.90;;;;;;4410939;32;20399;-68
2021/12/10 10:24:19;;;;;;;14.57;4.68;;;1.60;99.90;;;;;;4404466;32;20129;-67
2021/12/10 10:26:52;;;;;;;6.37;3.70;;;1.50;99.90;;;;;;4405521;32;20102;-67
2021/12/10 10:29:20;;;;;;;1.95;1.85;;;1.50;99.90;;;;;;4404061;32;20106;-67
2021/12/10 10:31:51;;;;;;;10.07;4.50;;;1.50;99.90;;;;;;4407986;32;20073;-66
2021/12/10 10:34:17;;;;;;;3.55;2.55;;;1.50;99.90;;;;;;4400221;32;20105;-69
2021/12/10 10:36:43;;;;;;;4.00;3.15;;;1.50;99.90;;;;;;4402179;32;20077;-69
2021/12/10 10:39:17;;;;;;;4.60;3.33;;;1.40;99.90;;;;;;4409395;32;20104;-68
2021/12/10 10:41:47;;;;;;;6.20;4.07;;;1.40;99.90;;;;;;4412276;32;20533;-68
2021/12/10 10:44:13;;;;;;;15.85;2.95;;;1.40;99.90;;;;;;4415072;32;20073;-68
2021/12/10 10:46:39;;;;;;;8.23;5.07;;;1.50;99.90;;;;;;4407783;32;20073;-68
2021/12/10 10:49:05;;;;;;;10.63;4.60;;;1.50;99.90;;;;;;4405839;32;20151;-68
2021/12/10 10:51:35;;;;;;;4.57;3.37;;;1.50;99.90;;;;;;4408687;32;20066;-69
2021/12/10 10:54:05;;;;;;;10.15;4.47;;;1.40;99.90;;;;;;4412398;32;20076;-68
2021/12/10 10:56:39;;;;;;;3.60;2.87;;;1.50;99.90;;;;;;4404635;32;20089;-69
2021/12/10 10:59:15;;;;;;;1.17;1.17;;;1.60;99.90;;;;;;4411684;32;20540;-69
2021/12/10 11:01:48;;;;;;;1.48;1.37;;;1.60;99.90;;;;;;4417649;32;20143;-67
2021/12/10 11:04:25;;;;;;;3.75;2.60;;;1.50;99.90;;;;;;4414673;32;20061;-67
2021/12/10 11:06:52;;;;;;;3.00;2.55;;;1.60;99.90;;;;;;4412563;32;20526;-68
2021/12/10 11:09:23;;;;;;;6.40;3.55;;;1.60;99.90;;;;;;4414523;32;20537;-67
2021/12/10 11:11:53;;;;;;;2.25;2.10;;;1.60;99.90;;;;;;4409628;32;21177;-68
2021/12/10 11:14:28;;;;;;;2.70;2.17;;;1.50;99.90;;;;;;4406641;32;20081;-68
2021/12/10 11:17:02;;;;;;;17.67;4.12;;;1.40;99.90;;;;;;4412514;32;20073;-68
2021/12/10 11:19:29;;;;;;;6.07;3.95;;;1.30;99.90;;;;;;4402843;32;20126;-68
2021/12/10 11:21:58;;;;;;;3.85;2.62;;;1.30;99.90;;;;;;4409722;32;20082;-68
2021/12/10 11:24:34;;;;;;;1.70;1.27;;;1.30;99.90;;;;;;4413744;32;20182;-69
2021/12/10 11:27:05;;;;;;;2.65;2.45;;;1.50;99.90;;;;;;4414179;32;20081;-67
2021/12/10 11:29:37;;;;;;;3.60;2.97;;;1.50;99.90;;;;;;4408433;32;20690;-67
2021/12/10 11:32:09;;;;;;;7.60;3.33;;;1.50;99.90;;;;;;4413046;32;20094;-68
2021/12/10 11:34:40;;;;;;;1.62;1.17;;;1.50;99.90;;;;;;4409085;32;20085;-67
2021/12/10 11:37:06;;;;;;;3.72;2.75;;;1.60;99.90;;;;;;4407760;32;20057;-68
2021/12/10 11:39:52;;;;;;;3.85;3.47;;;1.60;99.90;;;;;;4401897;32;20498;-68
2021/12/10 11:42:43;;;;;;;14.57;4.03;;;1.60;99.90;;;;;;4397499;32;20122;-68
2021/12/10 11:45:33;;;;;;;1.17;1.08;;;1.70;99.90;;;;;;4401120;32;20637;-67
2021/12/10 11:48:13;;;;;;;3.87;3.43;;;1.70;99.90;;;;;;4397595;32;20069;-69
2021/12/10 11:50:46;;;;;;;1.85;1.75;;;1.70;99.90;;;;;;4408690;32;20690;-68
2021/12/10 11:53:17;;;;;;;11.25;3.15;;;1.80;99.90;;;;;;4407236;32;20293;-68
2021/12/10 11:56:05;;;;;;;3.05;2.75;;;1.90;99.90;;;;;;4403555;32;20062;-69
2021/12/10 11:58:31;;;;;;;2.60;2.28;;;1.90;99.90;;;;;;4389939;32;20444;-67
2021/12/10 12:00:58;;;;;;;2.12;1.52;;;1.90;99.90;;;;;;4409623;32;20191;-68
2021/12/10 12:03:39;;;;;;;3.40;2.90;;;1.90;99.90;;;;;;4407345;32;20069;-68
2021/12/10 12:06:04;;;;;;;2.78;2.45;;;1.90;99.90;;;;;;4410700;32;20090;-68
2021/12/10 12:08:35;;;;;;;15.88;2.55;;;1.90;99.90;;;;;;4405686;32;20085;-68
2021/12/10 12:11:02;;;;;;;3.95;2.50;;;2.00;99.90;;;;;;4408148;32;20137;-68
2021/12/10 12:13:42;;;;;;;3.53;2.47;;;1.90;99.90;;;;;;4411169;32;20120;-68
2021/12/10 12:16:13;;;;;;;2.75;2.45;;;1.90;99.90;;;;;;4413353;32;20081;-68
2021/12/10 12:18:43;;;;;;;6.82;3.87;;;2.00;99.90;;;;;;4413492;32;20080;-68
2021/12/10 12:25:16;;;;;;;7.70;3.75;;;2.10;99.90;;;;;;4408401;32;20569;-69
2021/12/10 12:27:08;;;;;;;2.42;1.70;;;2.10;99.90;;;;;;4392904;32;20545;-68
2021/12/10 12:29:39;;;;;;;2.45;2.25;;;2.00;99.90;;;;;;4413728;32;20057;-69
2021/12/10 12:32:13;;;;;;;4.05;2.45;;;2.10;99.90;;;;;;4414126;32;20057;-70
2021/12/10 12:34:39;;;;;;;7.85;3.72;;;2.10;99.90;;;;;;4410557;32;20668;-69
2021/12/10 12:37:07;;;;;;;12.60;3.42;;;2.10;99.90;;;;;;4411806;32;20162;-69
2021/12/10 12:39:38;;;;;;;3.45;2.70;;;2.10;99.90;;;;;;4407396;32;20088;-68
2021/12/10 12:42:08;;;;;;;3.75;2.95;;;2.10;99.90;;;;;;4408773;32;20084;-70
2021/12/10 12:44:39;;;;;;;8.63;3.53;;;2.10;99.90;;;;;;4406511;32;20084;-69
2021/12/10 12:47:07;;;;;;;;;;;2.10;99.90;;;;;;4404094;32;20176;-67
2021/12/10 12:50:10;;;;;;;1.87;1.73;;;2.10;99.90;;;;;;4409376;32;19988;-69
2021/12/10 12:52:48;;;;;;;4.45;3.72;;;2.20;99.90;;;;;;4397208;32;20097;-69
2021/12/10 12:55:40;;;;;;;4.65;3.55;;;2.20;99.90;;;;;;4409357;32;20097;-70
2021/12/10 12:58:32;;;;;;;3.70;2.65;;;2.10;99.90;;;;;;4406283;32;20870;-69
2021/12/10 13:01:11;;;;;;;1.62;1.42;;;2.10;99.90;;;;;;4417625;32;20061;-70
2021/12/10 13:03:59;;;;;;;3.80;3.28;;;2.10;99.90;;;;;;4416388;32;20229;-69
2021/12/10 13:06:38;;;;;;;5.22;2.72;;;2.00;99.90;;;;;;4404915;32;20090;-68
2021/12/10 13:09:11;;;;;;;3.35;2.65;;;2.10;99.90;;;;;;4410577;32;20073;-68
2021/12/10 13:11:52;;;;;;;14.80;4.12;;;2.20;99.90;;;;;;4408879;32;20572;-68
2021/12/10 13:14:21;;;;;;;4.53;2.90;;;2.20;99.90;;;;;;4411888;32;20126;-69